sensor_id;sensor_type;location;lat;lon;timestamp;temperature;humidity
23597;DHT22;40226;50.874;4.394;2022-12-07T00:01:41;5.70;99.90
23597;DHT22;40226;50.874;4.394;2022-12-07T00:04:09;5.70;99.90
23597;DHT22;40226;50.874;4.394;2022-12-07T00:06:41;5.60;99.90
23597;DHT22;40226;50.874;4.394;2022-12-07T00:09:11;5.60;99.90
23597;DHT22;40226;50.874;4.394;2022-12-07T00:11:37;5.50;99.90
23597;DHT22;40226;50.874;4.394;2022-12-07T00:14:06;5.60;99.90
23597;DHT22;40226;50.874;4.394;2022-12-07T00:16:36;5.80;99.90
23597;DHT22;40226;50.874;4.394;2022-12-07T00:19:03;5.60;99.90
23597;DHT22;40226;50.874;4.394;2022-12-07T00:21:34;5.50;99.90
23597;DHT22;40226;50.874;4.394;2022-12-07T00:24:05;5.50;99.90
23597;DHT22;40226;50.874;4.394;2022-12-07T00:26:36;5.60;99.90
23597;DHT22;40226;50.874;4.394;2022-12-07T00:29:13;5.50;99.90
23597;DHT22;40226;50.874;4.394;2022-12-07T00:31:39;5.40;99.90
23597;DHT22;40226;50.874;4.394;2022-12-07T00:34:09;5.40;99.90
23597;DHT22;40226;50.874;4.394;2022-12-07T00:36:48;5.40;99.90
23597;DHT22;40226;50.874;4.394;2022-12-07T00:39:16;5.30;99.90
23597;DHT22;40226;50.874;4.394;2022-12-07T00:41:43;5.30;99.90
23597;DHT22;40226;50.874;4.394;2022-12-07T00:44:11;5.30;99.90
23597;DHT22;40226;50.874;4.394;2022-12-07T00:46:49;5.20;99.90
23597;DHT22;40226;50.874;4.394;2022-12-07T00:49:15;5.20;99.90
23597;DHT22;40226;50.874;4.394;2022-12-07T00:51:51;5.10;99.90
23597;DHT22;40226;50.874;4.394;2022-12-07T00:54:16;5.30;99.90
23597;DHT22;40226;50.874;4.394;2022-12-07T00:56:42;5.40;99.90
23597;DHT22;40226;50.874;4.394;2022-12-07T00:59:12;5.40;99.90
23597;DHT22;40226;50.874;4.394;2022-12-07T01:01:39;5.30;99.90
23597;DHT22;40226;50.874;4.394;2022-12-07T01:04:33;5.30;99.90
23597;DHT22;40226;50.874;4.394;2022-12-07T01:06:59;5.20;99.90
23597;DHT22;40226;50.874;4.394;2022-12-07T01:09:24;5.00;99.90
23597;DHT22;40226;50.874;4.394;2022-12-07T01:11:50;4.90;99.90
23597;DHT22;40226;50.874;4.394;2022-12-07T01:14:15;4.90;99.90
23597;DHT22;40226;50.874;4.394;2022-12-07T01:16:41;4.90;99.90
23597;DHT22;40226;50.874;4.394;2022-12-07T01:19:10;4.90;99.90
23597;DHT22;40226;50.874;4.394;2022-12-07T01:21:39;4.80;99.90
23597;DHT22;40226;50.874;4.394;2022-12-07T01:24:09;4.80;99.90
23597;DHT22;40226;50.874;4.394;2022-12-07T01:26:35;4.70;99.90
23597;DHT22;40226;50.874;4.394;2022-12-07T01:29:06;4.80;99.90
23597;DHT22;40226;50.874;4.394;2022-12-07T01:31:32;4.70;99.90
23597;DHT22;40226;50.874;4.394;2022-12-07T01:33:59;4.70;99.90
23597;DHT22;40226;50.874;4.394;2022-12-07T01:38:59;4.70;99.90
23597;DHT22;40226;50.874;4.394;2022-12-07T01:41:30;4.80;99.90
23597;DHT22;40226;50.874;4.394;2022-12-07T01:46:44;4.80;99.90
23597;DHT22;40226;50.874;4.394;2022-12-07T01:49:37;4.90;99.90
23597;DHT22;40226;50.874;4.394;2022-12-07T01:52:30;5.00;99.90
23597;DHT22;40226;50.874;4.394;2022-12-07T01:55:08;5.30;99.90
23597;DHT22;40226;50.874;4.394;2022-12-07T01:57:41;5.20;99.90
23597;DHT22;40226;50.874;4.394;2022-12-07T02:00:28;5.40;99.90
23597;DHT22;40226;50.874;4.394;2022-12-07T02:05:35;5.40;99.90
23597;DHT22;40226;50.874;4.394;2022-12-07T02:08:03;5.20;99.90
23597;DHT22;40226;50.874;4.394;2022-12-07T02:10:31;5.20;99.90
23597;DHT22;40226;50.874;4.394;2022-12-07T02:13:19;5.10;99.90
23597;DHT22;40226;50.874;4.394;2022-12-07T02:18:30;5.00;99.90
23597;DHT22;40226;50.874;4.394;2022-12-07T02:21:12;4.90;99.90
23597;DHT22;40226;50.874;4.394;2022-12-07T02:23:52;5.00;99.90
23597;DHT22;40226;50.874;4.394;2022-12-07T02:26:34;5.00;99.90
23597;DHT22;40226;50.874;4.394;2022-12-07T02:31:32;5.30;99.90
23597;DHT22;40226;50.874;4.394;2022-12-07T02:34:06;5.50;99.90
23597;DHT22;40226;50.874;4.394;2022-12-07T02:36:42;5.70;99.90
23597;DHT22;40226;50.874;4.394;2022-12-07T02:39:17;5.40;99.90
23597;DHT22;40226;50.874;4.394;2022-12-07T02:41:47;5.20;99.90
23597;DHT22;40226;50.874;4.394;2022-12-07T02:44:19;5.10;99.90
23597;DHT22;40226;50.874;4.394;2022-12-07T02:46:58;5.00;99.90
23597;DHT22;40226;50.874;4.394;2022-12-07T02:49:27;5.00;99.90
23597;DHT22;40226;50.874;4.394;2022-12-07T02:51:55;5.10;99.90
23597;DHT22;40226;50.874;4.394;2022-12-07T02:54:21;5.10;99.90
23597;DHT22;40226;50.874;4.394;2022-12-07T03:00:14;5.00;99.90
23597;DHT22;40226;50.874;4.394;2022-12-07T03:09:17;4.80;99.90
23597;DHT22;40226;50.874;4.394;2022-12-07T03:11:53;4.90;99.90
23597;DHT22;40226;50.874;4.394;2022-12-07T03:14:52;4.80;99.90
23597;DHT22;40226;50.874;4.394;2022-12-07T03:17:26;4.80;99.90
23597;DHT22;40226;50.874;4.394;2022-12-07T03:19:58;4.80;99.90
23597;DHT22;40226;50.874;4.394;2022-12-07T03:22:24;4.60;99.90
23597;DHT22;40226;50.874;4.394;2022-12-07T03:24:58;4.60;99.90
23597;DHT22;40226;50.874;4.394;2022-12-07T03:30:22;4.90;99.90
23597;DHT22;40226;50.874;4.394;2022-12-07T03:33:13;4.90;99.90
23597;DHT22;40226;50.874;4.394;2022-12-07T03:36:08;4.80;99.90
23597;DHT22;40226;50.874;4.394;2022-12-07T03:39:07;4.80;99.90
23597;DHT22;40226;50.874;4.394;2022-12-07T03:41:36;4.70;99.90
23597;DHT22;40226;50.874;4.394;2022-12-07T03:44:03;4.60;99.90
23597;DHT22;40226;50.874;4.394;2022-12-07T03:49:43;4.50;99.90
23597;DHT22;40226;50.874;4.394;2022-12-07T03:52:40;4.40;99.90
23597;DHT22;40226;50.874;4.394;2022-12-07T03:55:44;4.40;99.90
23597;DHT22;40226;50.874;4.394;2022-12-07T03:58:18;4.50;99.90
23597;DHT22;40226;50.874;4.394;2022-12-07T04:00:47;4.40;99.90
23597;DHT22;40226;50.874;4.394;2022-12-07T04:03:13;4.40;99.90
23597;DHT22;40226;50.874;4.394;2022-12-07T04:05:39;4.40;99.90
23597;DHT22;40226;50.874;4.394;2022-12-07T04:08:08;4.30;99.90
23597;DHT22;40226;50.874;4.394;2022-12-07T04:10:40;4.40;99.90
23597;DHT22;40226;50.874;4.394;2022-12-07T04:13:12;4.40;99.90
23597;DHT22;40226;50.874;4.394;2022-12-07T04:15:39;4.40;99.90
23597;DHT22;40226;50.874;4.394;2022-12-07T04:18:05;4.30;99.90
23597;DHT22;40226;50.874;4.394;2022-12-07T04:20:31;4.30;99.90
23597;DHT22;40226;50.874;4.394;2022-12-07T04:22:56;4.30;99.90
23597;DHT22;40226;50.874;4.394;2022-12-07T04:25:22;4.30;99.90
23597;DHT22;40226;50.874;4.394;2022-12-07T04:27:48;4.20;99.90
23597;DHT22;40226;50.874;4.394;2022-12-07T04:30:13;4.20;99.90
23597;DHT22;40226;50.874;4.394;2022-12-07T04:32:39;4.20;99.90
23597;DHT22;40226;50.874;4.394;2022-12-07T04:35:05;4.30;99.90
23597;DHT22;40226;50.874;4.394;2022-12-07T04:37:31;4.40;99.90
23597;DHT22;40226;50.874;4.394;2022-12-07T04:39:57;4.60;99.90
23597;DHT22;40226;50.874;4.394;2022-12-07T04:42:22;4.70;99.90
23597;DHT22;40226;50.874;4.394;2022-12-07T04:44:56;4.90;99.90
23597;DHT22;40226;50.874;4.394;2022-12-07T04:47:27;4.80;99.90
23597;DHT22;40226;50.874;4.394;2022-12-07T04:49:54;4.60;99.90
23597;DHT22;40226;50.874;4.394;2022-12-07T04:52:21;4.60;99.90
23597;DHT22;40226;50.874;4.394;2022-12-07T04:54:46;4.60;99.90
23597;DHT22;40226;50.874;4.394;2022-12-07T04:57:12;4.60;99.90
23597;DHT22;40226;50.874;4.394;2022-12-07T04:59:38;4.50;99.90
23597;DHT22;40226;50.874;4.394;2022-12-07T05:02:06;4.40;99.90
23597;DHT22;40226;50.874;4.394;2022-12-07T05:04:32;4.40;99.90
23597;DHT22;40226;50.874;4.394;2022-12-07T05:06:58;4.40;99.90
23597;DHT22;40226;50.874;4.394;2022-12-07T05:09:23;4.40;99.90
23597;DHT22;40226;50.874;4.394;2022-12-07T05:11:49;4.30;99.90
23597;DHT22;40226;50.874;4.394;2022-12-07T05:14:20;4.30;99.90
23597;DHT22;40226;50.874;4.394;2022-12-07T05:17:15;4.40;99.90
23597;DHT22;40226;50.874;4.394;2022-12-07T05:19:43;4.50;99.90
23597;DHT22;40226;50.874;4.394;2022-12-07T05:22:14;4.40;99.90
23597;DHT22;40226;50.874;4.394;2022-12-07T05:24:40;4.40;99.90
23597;DHT22;40226;50.874;4.394;2022-12-07T05:27:10;4.40;99.90
23597;DHT22;40226;50.874;4.394;2022-12-07T05:29:36;4.50;99.90
23597;DHT22;40226;50.874;4.394;2022-12-07T05:32:02;4.50;99.90
23597;DHT22;40226;50.874;4.394;2022-12-07T05:34:41;4.40;99.90
23597;DHT22;40226;50.874;4.394;2022-12-07T05:37:07;4.40;99.90
23597;DHT22;40226;50.874;4.394;2022-12-07T05:39:43;4.40;99.90
23597;DHT22;40226;50.874;4.394;2022-12-07T05:42:21;4.50;99.90
23597;DHT22;40226;50.874;4.394;2022-12-07T05:45:16;4.50;99.90
23597;DHT22;40226;50.874;4.394;2022-12-07T05:47:42;4.40;99.90
23597;DHT22;40226;50.874;4.394;2022-12-07T05:50:18;4.50;99.90
23597;DHT22;40226;50.874;4.394;2022-12-07T05:52:44;4.70;99.90
23597;DHT22;40226;50.874;4.394;2022-12-07T05:55:18;4.80;99.90
23597;DHT22;40226;50.874;4.394;2022-12-07T05:57:48;4.90;99.90
23597;DHT22;40226;50.874;4.394;2022-12-07T06:00:33;4.70;99.90
23597;DHT22;40226;50.874;4.394;2022-12-07T06:02:58;4.60;99.90
23597;DHT22;40226;50.874;4.394;2022-12-07T06:05:44;4.80;99.90
23597;DHT22;40226;50.874;4.394;2022-12-07T06:08:09;4.90;99.90
23597;DHT22;40226;50.874;4.394;2022-12-07T06:10:36;4.80;99.90
23597;DHT22;40226;50.874;4.394;2022-12-07T06:13:04;4.80;99.90
23597;DHT22;40226;50.874;4.394;2022-12-07T06:15:32;5.00;99.90
23597;DHT22;40226;50.874;4.394;2022-12-07T06:18:00;5.20;99.90
23597;DHT22;40226;50.874;4.394;2022-12-07T06:20:26;5.20;99.90
23597;DHT22;40226;50.874;4.394;2022-12-07T06:22:52;5.30;99.90
23597;DHT22;40226;50.874;4.394;2022-12-07T06:25:23;5.00;99.90
23597;DHT22;40226;50.874;4.394;2022-12-07T06:28:02;4.80;99.90
23597;DHT22;40226;50.874;4.394;2022-12-07T06:30:29;4.70;99.90
23597;DHT22;40226;50.874;4.394;2022-12-07T06:32:56;4.70;99.90
23597;DHT22;40226;50.874;4.394;2022-12-07T06:35:41;4.70;99.90
23597;DHT22;40226;50.874;4.394;2022-12-07T06:38:07;4.70;99.90
23597;DHT22;40226;50.874;4.394;2022-12-07T06:40:33;4.60;99.90
23597;DHT22;40226;50.874;4.394;2022-12-07T06:43:22;4.60;99.90
23597;DHT22;40226;50.874;4.394;2022-12-07T06:45:47;4.60;99.90
23597;DHT22;40226;50.874;4.394;2022-12-07T06:48:13;4.80;99.90
23597;DHT22;40226;50.874;4.394;2022-12-07T06:50:40;4.80;99.90
23597;DHT22;40226;50.874;4.394;2022-12-07T06:53:08;4.90;99.90
23597;DHT22;40226;50.874;4.394;2022-12-07T06:55:34;4.80;99.90
23597;DHT22;40226;50.874;4.394;2022-12-07T06:58:05;4.90;99.90
23597;DHT22;40226;50.874;4.394;2022-12-07T07:00:30;5.00;99.90
23597;DHT22;40226;50.874;4.394;2022-12-07T07:03:02;5.00;99.90
23597;DHT22;40226;50.874;4.394;2022-12-07T07:05:41;5.50;99.90
23597;DHT22;40226;50.874;4.394;2022-12-07T07:08:07;5.70;99.90
23597;DHT22;40226;50.874;4.394;2022-12-07T07:10:35;5.50;99.90
23597;DHT22;40226;50.874;4.394;2022-12-07T07:13:02;5.20;99.90
23597;DHT22;40226;50.874;4.394;2022-12-07T07:15:28;5.10;99.90
23597;DHT22;40226;50.874;4.394;2022-12-07T07:17:54;5.30;99.90
23597;DHT22;40226;50.874;4.394;2022-12-07T07:20:37;5.20;99.90
23597;DHT22;40226;50.874;4.394;2022-12-07T07:23:07;5.10;99.90
23597;DHT22;40226;50.874;4.394;2022-12-07T07:25:34;4.90;99.90
23597;DHT22;40226;50.874;4.394;2022-12-07T07:28:02;5.10;99.90
23597;DHT22;40226;50.874;4.394;2022-12-07T07:30:28;5.40;99.90
23597;DHT22;40226;50.874;4.394;2022-12-07T07:33:02;5.20;99.90
23597;DHT22;40226;50.874;4.394;2022-12-07T07:35:29;5.10;99.90
23597;DHT22;40226;50.874;4.394;2022-12-07T07:37:56;5.20;99.90
23597;DHT22;40226;50.874;4.394;2022-12-07T07:40:22;4.90;99.90
23597;DHT22;40226;50.874;4.394;2022-12-07T07:42:53;4.90;99.90
23597;DHT22;40226;50.874;4.394;2022-12-07T07:45:20;4.90;99.90
23597;DHT22;40226;50.874;4.394;2022-12-07T07:47:47;4.90;99.90
23597;DHT22;40226;50.874;4.394;2022-12-07T07:50:13;4.70;99.90
23597;DHT22;40226;50.874;4.394;2022-12-07T07:52:42;4.60;99.90
23597;DHT22;40226;50.874;4.394;2022-12-07T07:55:08;4.60;99.90
23597;DHT22;40226;50.874;4.394;2022-12-07T07:57:35;4.60;99.90
23597;DHT22;40226;50.874;4.394;2022-12-07T08:00:06;4.60;99.90
23597;DHT22;40226;50.874;4.394;2022-12-07T08:02:32;4.60;99.90
23597;DHT22;40226;50.874;4.394;2022-12-07T08:04:59;4.60;99.90
23597;DHT22;40226;50.874;4.394;2022-12-07T08:07:29;4.60;99.90
23597;DHT22;40226;50.874;4.394;2022-12-07T08:09:57;4.60;99.90
23597;DHT22;40226;50.874;4.394;2022-12-07T08:12:23;4.60;99.90
23597;DHT22;40226;50.874;4.394;2022-12-07T08:14:48;4.60;99.90
23597;DHT22;40226;50.874;4.394;2022-12-07T08:17:14;4.70;99.90
23597;DHT22;40226;50.874;4.394;2022-12-07T08:19:40;4.70;99.90
23597;DHT22;40226;50.874;4.394;2022-12-07T08:22:05;4.70;99.90
23597;DHT22;40226;50.874;4.394;2022-12-07T08:24:36;4.70;99.90
23597;DHT22;40226;50.874;4.394;2022-12-07T08:27:02;4.70;99.90
23597;DHT22;40226;50.874;4.394;2022-12-07T08:29:29;4.70;99.90
23597;DHT22;40226;50.874;4.394;2022-12-07T08:31:55;4.60;99.90
23597;DHT22;40226;50.874;4.394;2022-12-07T08:34:21;4.60;99.90
23597;DHT22;40226;50.874;4.394;2022-12-07T08:36:49;4.60;99.90
23597;DHT22;40226;50.874;4.394;2022-12-07T08:39:14;4.80;99.90
23597;DHT22;40226;50.874;4.394;2022-12-07T08:41:40;4.70;99.90
23597;DHT22;40226;50.874;4.394;2022-12-07T08:44:05;4.70;99.90
23597;DHT22;40226;50.874;4.394;2022-12-07T08:46:47;4.80;99.90
23597;DHT22;40226;50.874;4.394;2022-12-07T08:49:28;4.90;99.90
23597;DHT22;40226;50.874;4.394;2022-12-07T08:51:56;4.90;99.90
23597;DHT22;40226;50.874;4.394;2022-12-07T08:54:25;5.00;99.90
23597;DHT22;40226;50.874;4.394;2022-12-07T08:57:00;4.90;99.90
23597;DHT22;40226;50.874;4.394;2022-12-07T08:59:27;5.10;99.90
23597;DHT22;40226;50.874;4.394;2022-12-07T09:01:53;5.20;99.90
23597;DHT22;40226;50.874;4.394;2022-12-07T09:04:19;5.30;99.90
23597;DHT22;40226;50.874;4.394;2022-12-07T09:06:46;5.30;99.90
23597;DHT22;40226;50.874;4.394;2022-12-07T09:09:13;5.30;99.90
23597;DHT22;40226;50.874;4.394;2022-12-07T09:11:39;5.20;99.90
23597;DHT22;40226;50.874;4.394;2022-12-07T09:14:12;5.30;99.90
23597;DHT22;40226;50.874;4.394;2022-12-07T09:16:38;5.40;99.90
23597;DHT22;40226;50.874;4.394;2022-12-07T09:19:04;5.50;99.90
23597;DHT22;40226;50.874;4.394;2022-12-07T09:21:29;5.50;99.90
23597;DHT22;40226;50.874;4.394;2022-12-07T09:23:56;5.60;99.90
23597;DHT22;40226;50.874;4.394;2022-12-07T09:26:22;5.60;99.90
23597;DHT22;40226;50.874;4.394;2022-12-07T09:28:47;5.80;99.90
23597;DHT22;40226;50.874;4.394;2022-12-07T09:31:13;5.70;99.90
23597;DHT22;40226;50.874;4.394;2022-12-07T09:33:40;5.90;99.90
23597;DHT22;40226;50.874;4.394;2022-12-07T09:36:06;6.10;99.90
23597;DHT22;40226;50.874;4.394;2022-12-07T09:38:32;6.10;99.90
23597;DHT22;40226;50.874;4.394;2022-12-07T09:41:07;6.20;99.90
23597;DHT22;40226;50.874;4.394;2022-12-07T09:43:34;6.20;99.90
23597;DHT22;40226;50.874;4.394;2022-12-07T09:46:00;6.30;99.90
23597;DHT22;40226;50.874;4.394;2022-12-07T09:48:35;6.50;99.90
23597;DHT22;40226;50.874;4.394;2022-12-07T09:53:38;6.60;99.90
23597;DHT22;40226;50.874;4.394;2022-12-07T09:56:04;6.20;99.90
23597;DHT22;40226;50.874;4.394;2022-12-07T09:58:31;6.20;99.90
23597;DHT22;40226;50.874;4.394;2022-12-07T10:01:19;6.60;99.90
23597;DHT22;40226;50.874;4.394;2022-12-07T10:03:58;6.60;99.90
23597;DHT22;40226;50.874;4.394;2022-12-07T10:06:25;6.70;99.90
23597;DHT22;40226;50.874;4.394;2022-12-07T10:08:52;6.70;99.90
23597;DHT22;40226;50.874;4.394;2022-12-07T10:11:17;6.60;99.90
23597;DHT22;40226;50.874;4.394;2022-12-07T10:13:49;6.60;99.90
23597;DHT22;40226;50.874;4.394;2022-12-07T10:18:54;7.10;99.90
23597;DHT22;40226;50.874;4.394;2022-12-07T10:21:25;7.10;99.90
23597;DHT22;40226;50.874;4.394;2022-12-07T10:31:56;6.60;99.90
23597;DHT22;40226;50.874;4.394;2022-12-07T10:39:54;6.40;99.90
23597;DHT22;40226;50.874;4.394;2022-12-07T10:42:27;6.10;99.90
23597;DHT22;40226;50.874;4.394;2022-12-07T10:50:37;6.20;99.90
23597;DHT22;40226;50.874;4.394;2022-12-07T10:53:31;6.30;99.90
23597;DHT22;40226;50.874;4.394;2022-12-07T10:56:05;6.40;99.90
23597;DHT22;40226;50.874;4.394;2022-12-07T11:01:54;6.80;99.90
23597;DHT22;40226;50.874;4.394;2022-12-07T11:14:11;7.20;99.90
23597;DHT22;40226;50.874;4.394;2022-12-07T11:21:37;6.90;99.90
23597;DHT22;40226;50.874;4.394;2022-12-07T11:24:22;6.90;99.90
23597;DHT22;40226;50.874;4.394;2022-12-07T11:27:00;6.90;99.90
23597;DHT22;40226;50.874;4.394;2022-12-07T11:30:08;6.80;99.90
23597;DHT22;40226;50.874;4.394;2022-12-07T11:35:22;6.40;99.90
23597;DHT22;40226;50.874;4.394;2022-12-07T11:38:01;6.60;99.90
23597;DHT22;40226;50.874;4.394;2022-12-07T11:40:36;6.90;99.90
23597;DHT22;40226;50.874;4.394;2022-12-07T11:43:20;7.00;99.90
23597;DHT22;40226;50.874;4.394;2022-12-07T11:46:10;6.90;99.90
23597;DHT22;40226;50.874;4.394;2022-12-07T11:51:21;7.50;99.90
23597;DHT22;40226;50.874;4.394;2022-12-07T11:53:59;7.50;99.90
23597;DHT22;40226;50.874;4.394;2022-12-07T11:56:28;7.60;99.90
23597;DHT22;40226;50.874;4.394;2022-12-07T11:58:58;7.50;99.90
23597;DHT22;40226;50.874;4.394;2022-12-07T12:06:37;7.70;99.90
23597;DHT22;40226;50.874;4.394;2022-12-07T12:12:21;7.50;99.90
23597;DHT22;40226;50.874;4.394;2022-12-07T12:15:20;7.90;99.90
23597;DHT22;40226;50.874;4.394;2022-12-07T12:22:51;7.50;99.90
23597;DHT22;40226;50.874;4.394;2022-12-07T12:25:27;7.60;99.90
23597;DHT22;40226;50.874;4.394;2022-12-07T12:27:57;7.80;99.90
23597;DHT22;40226;50.874;4.394;2022-12-07T12:30:39;8.00;99.90
23597;DHT22;40226;50.874;4.394;2022-12-07T12:33:31;8.20;99.90
23597;DHT22;40226;50.874;4.394;2022-12-07T12:49:37;8.90;99.90
23597;DHT22;40226;50.874;4.394;2022-12-07T12:57:36;8.40;99.90
23597;DHT22;40226;50.874;4.394;2022-12-07T13:00:22;8.20;99.90
23597;DHT22;40226;50.874;4.394;2022-12-07T13:02:56;8.50;99.90
23597;DHT22;40226;50.874;4.394;2022-12-07T13:05:29;8.60;99.90
23597;DHT22;40226;50.874;4.394;2022-12-07T13:07:58;8.80;99.90
23597;DHT22;40226;50.874;4.394;2022-12-07T13:15:38;8.40;99.90
23597;DHT22;40226;50.874;4.394;2022-12-07T13:28:50;8.50;99.90
23597;DHT22;40226;50.874;4.394;2022-12-07T13:31:41;8.60;99.90
23597;DHT22;40226;50.874;4.394;2022-12-07T13:34:31;8.70;99.90
23597;DHT22;40226;50.874;4.394;2022-12-07T13:37:00;8.70;99.90
23597;DHT22;40226;50.874;4.394;2022-12-07T13:39:27;8.50;99.90
23597;DHT22;40226;50.874;4.394;2022-12-07T13:41:55;8.50;99.90
23597;DHT22;40226;50.874;4.394;2022-12-07T13:44:23;8.70;99.90
23597;DHT22;40226;50.874;4.394;2022-12-07T13:46:57;8.40;99.90
23597;DHT22;40226;50.874;4.394;2022-12-07T13:51:49;8.00;99.90
23597;DHT22;40226;50.874;4.394;2022-12-07T13:54:18;8.10;99.90
23597;DHT22;40226;50.874;4.394;2022-12-07T13:56:48;8.10;99.90
23597;DHT22;40226;50.874;4.394;2022-12-07T13:59:22;8.30;99.90
23597;DHT22;40226;50.874;4.394;2022-12-07T14:01:49;8.30;99.90
23597;DHT22;40226;50.874;4.394;2022-12-07T14:04:36;8.10;99.90
23597;DHT22;40226;50.874;4.394;2022-12-07T14:07:20;7.70;99.90
23597;DHT22;40226;50.874;4.394;2022-12-07T14:09:54;7.50;99.90
23597;DHT22;40226;50.874;4.394;2022-12-07T14:12:19;7.60;99.90
23597;DHT22;40226;50.874;4.394;2022-12-07T14:14:49;7.50;99.90
23597;DHT22;40226;50.874;4.394;2022-12-07T14:17:20;7.50;99.90
23597;DHT22;40226;50.874;4.394;2022-12-07T14:20:02;7.50;99.90
23597;DHT22;40226;50.874;4.394;2022-12-07T14:25:17;7.50;99.90
23597;DHT22;40226;50.874;4.394;2022-12-07T14:28:01;7.60;99.90
23597;DHT22;40226;50.874;4.394;2022-12-07T14:30:29;7.50;99.90
23597;DHT22;40226;50.874;4.394;2022-12-07T14:33:01;7.50;99.90
23597;DHT22;40226;50.874;4.394;2022-12-07T14:35:27;7.50;99.90
23597;DHT22;40226;50.874;4.394;2022-12-07T14:37:54;7.30;99.90
23597;DHT22;40226;50.874;4.394;2022-12-07T14:40:28;7.10;99.90
23597;DHT22;40226;50.874;4.394;2022-12-07T14:43:08;6.90;99.90
23597;DHT22;40226;50.874;4.394;2022-12-07T14:45:34;6.90;99.90
23597;DHT22;40226;50.874;4.394;2022-12-07T14:48:00;6.90;99.90
23597;DHT22;40226;50.874;4.394;2022-12-07T14:50:26;6.90;99.90
23597;DHT22;40226;50.874;4.394;2022-12-07T14:52:55;7.00;99.90
23597;DHT22;40226;50.874;4.394;2022-12-07T14:55:26;7.00;99.90
23597;DHT22;40226;50.874;4.394;2022-12-07T14:57:52;6.80;99.90
23597;DHT22;40226;50.874;4.394;2022-12-07T15:00:18;6.80;99.90
23597;DHT22;40226;50.874;4.394;2022-12-07T15:02:45;6.70;99.90
23597;DHT22;40226;50.874;4.394;2022-12-07T15:05:12;6.80;99.90
23597;DHT22;40226;50.874;4.394;2022-12-07T15:07:39;6.80;99.90
23597;DHT22;40226;50.874;4.394;2022-12-07T15:10:06;7.00;99.90
23597;DHT22;40226;50.874;4.394;2022-12-07T15:12:32;7.30;99.90
23597;DHT22;40226;50.874;4.394;2022-12-07T15:14:57;7.40;99.90
23597;DHT22;40226;50.874;4.394;2022-12-07T15:17:23;7.20;99.90
23597;DHT22;40226;50.874;4.394;2022-12-07T15:19:48;7.10;99.90
23597;DHT22;40226;50.874;4.394;2022-12-07T15:22:14;7.00;99.90
23597;DHT22;40226;50.874;4.394;2022-12-07T15:24:40;7.30;99.90
23597;DHT22;40226;50.874;4.394;2022-12-07T15:27:05;7.40;99.90
23597;DHT22;40226;50.874;4.394;2022-12-07T15:29:31;7.10;99.90
23597;DHT22;40226;50.874;4.394;2022-12-07T15:31:56;7.00;99.90
23597;DHT22;40226;50.874;4.394;2022-12-07T15:34:26;6.90;99.90
23597;DHT22;40226;50.874;4.394;2022-12-07T15:36:54;6.90;99.90
23597;DHT22;40226;50.874;4.394;2022-12-07T15:39:20;6.80;99.90
23597;DHT22;40226;50.874;4.394;2022-12-07T15:41:47;7.00;99.90
23597;DHT22;40226;50.874;4.394;2022-12-07T15:44:13;6.90;99.90
23597;DHT22;40226;50.874;4.394;2022-12-07T15:46:58;7.00;99.90
23597;DHT22;40226;50.874;4.394;2022-12-07T15:49:24;7.10;99.90
23597;DHT22;40226;50.874;4.394;2022-12-07T15:51:52;7.20;99.90
23597;DHT22;40226;50.874;4.394;2022-12-07T15:54:27;6.60;99.90
23597;DHT22;40226;50.874;4.394;2022-12-07T15:56:54;6.50;99.90
23597;DHT22;40226;50.874;4.394;2022-12-07T15:59:20;6.30;99.90
23597;DHT22;40226;50.874;4.394;2022-12-07T16:01:46;6.10;99.90
23597;DHT22;40226;50.874;4.394;2022-12-07T16:04:12;6.20;99.90
23597;DHT22;40226;50.874;4.394;2022-12-07T16:06:37;6.30;99.90
23597;DHT22;40226;50.874;4.394;2022-12-07T16:09:04;6.60;99.90
23597;DHT22;40226;50.874;4.394;2022-12-07T16:11:33;6.70;99.90
23597;DHT22;40226;50.874;4.394;2022-12-07T16:13:58;6.70;99.90
23597;DHT22;40226;50.874;4.394;2022-12-07T16:16:24;6.90;99.90
23597;DHT22;40226;50.874;4.394;2022-12-07T16:18:50;6.70;99.90
23597;DHT22;40226;50.874;4.394;2022-12-07T16:21:17;6.40;99.90
23597;DHT22;40226;50.874;4.394;2022-12-07T16:23:43;6.50;99.90
23597;DHT22;40226;50.874;4.394;2022-12-07T16:26:21;6.30;99.90
23597;DHT22;40226;50.874;4.394;2022-12-07T16:28:51;6.60;99.90
23597;DHT22;40226;50.874;4.394;2022-12-07T16:31:19;6.60;99.90
23597;DHT22;40226;50.874;4.394;2022-12-07T16:33:45;6.80;99.90
23597;DHT22;40226;50.874;4.394;2022-12-07T16:36:12;7.20;99.90
23597;DHT22;40226;50.874;4.394;2022-12-07T16:38:39;6.70;99.90
23597;DHT22;40226;50.874;4.394;2022-12-07T16:41:06;6.70;99.90
23597;DHT22;40226;50.874;4.394;2022-12-07T16:43:32;6.80;99.90
23597;DHT22;40226;50.874;4.394;2022-12-07T16:45:58;6.60;99.90
23597;DHT22;40226;50.874;4.394;2022-12-07T16:48:24;6.50;99.90
23597;DHT22;40226;50.874;4.394;2022-12-07T16:50:49;6.40;99.90
23597;DHT22;40226;50.874;4.394;2022-12-07T16:53:15;6.30;99.90
23597;DHT22;40226;50.874;4.394;2022-12-07T16:55:43;6.30;99.90
23597;DHT22;40226;50.874;4.394;2022-12-07T16:58:10;6.40;99.90
23597;DHT22;40226;50.874;4.394;2022-12-07T17:00:36;6.60;99.90
23597;DHT22;40226;50.874;4.394;2022-12-07T17:03:03;6.70;99.90
23597;DHT22;40226;50.874;4.394;2022-12-07T17:05:28;6.80;99.90
23597;DHT22;40226;50.874;4.394;2022-12-07T17:07:55;6.80;99.90
23597;DHT22;40226;50.874;4.394;2022-12-07T17:10:21;6.90;99.90
23597;DHT22;40226;50.874;4.394;2022-12-07T17:12:47;7.20;99.90
23597;DHT22;40226;50.874;4.394;2022-12-07T17:15:13;7.00;99.90
23597;DHT22;40226;50.874;4.394;2022-12-07T17:17:53;6.70;99.90
23597;DHT22;40226;50.874;4.394;2022-12-07T17:20:23;6.60;99.90
23597;DHT22;40226;50.874;4.394;2022-12-07T17:22:49;6.50;99.90
23597;DHT22;40226;50.874;4.394;2022-12-07T17:25:16;6.60;99.90
23597;DHT22;40226;50.874;4.394;2022-12-07T17:27:43;6.50;99.90
23597;DHT22;40226;50.874;4.394;2022-12-07T17:30:10;6.60;99.90
23597;DHT22;40226;50.874;4.394;2022-12-07T17:32:36;6.70;99.90
23597;DHT22;40226;50.874;4.394;2022-12-07T17:35:03;6.50;99.90
23597;DHT22;40226;50.874;4.394;2022-12-07T17:37:30;6.50;99.90
23597;DHT22;40226;50.874;4.394;2022-12-07T17:39:57;6.70;99.90
23597;DHT22;40226;50.874;4.394;2022-12-07T17:42:25;6.70;99.90
23597;DHT22;40226;50.874;4.394;2022-12-07T17:45:07;6.70;99.90
23597;DHT22;40226;50.874;4.394;2022-12-07T17:47:33;6.60;99.90
23597;DHT22;40226;50.874;4.394;2022-12-07T17:49:59;6.60;99.90
23597;DHT22;40226;50.874;4.394;2022-12-07T17:52:25;6.70;99.90
23597;DHT22;40226;50.874;4.394;2022-12-07T17:55:09;6.70;99.90
23597;DHT22;40226;50.874;4.394;2022-12-07T17:57:34;6.60;99.90
23597;DHT22;40226;50.874;4.394;2022-12-07T18:00:01;6.60;99.90
23597;DHT22;40226;50.874;4.394;2022-12-07T18:02:27;6.30;99.90
23597;DHT22;40226;50.874;4.394;2022-12-07T18:04:52;6.20;99.90
23597;DHT22;40226;50.874;4.394;2022-12-07T18:07:18;6.20;99.90
23597;DHT22;40226;50.874;4.394;2022-12-07T18:09:44;6.20;99.90
23597;DHT22;40226;50.874;4.394;2022-12-07T18:12:10;6.00;99.90
23597;DHT22;40226;50.874;4.394;2022-12-07T18:14:38;6.00;99.90
23597;DHT22;40226;50.874;4.394;2022-12-07T18:17:03;6.10;99.90